createdAt,value
2019-02-12T00:00:57.223Z,1023.71
2019-02-12T00:01:57.210Z,1023.73
2019-02-12T00:02:57.217Z,1023.75
2019-02-12T00:03:57.186Z,1023.75
2019-02-12T00:04:57.173Z,1023.73
2019-02-12T00:05:57.209Z,1023.73
2019-02-12T00:06:57.158Z,1023.71
2019-02-12T00:07:57.144Z,1023.74
2019-02-12T00:08:57.147Z,1023.73
2019-02-12T00:09:57.122Z,1023.71
2019-02-12T00:10:57.110Z,1023.76
2019-02-12T00:11:57.135Z,1023.69
2019-02-12T00:12:57.089Z,1023.77
2019-02-12T00:13:57.092Z,1023.84
2019-02-12T00:14:57.067Z,1023.85
2019-02-12T00:15:57.056Z,1023.89
2019-02-12T00:16:57.043Z,1023.89
2019-02-12T00:17:57.063Z,1023.93
2019-02-12T00:18:57.023Z,1023.91
2019-02-12T00:19:57.030Z,1023.87
2019-02-12T00:20:57.002Z,1023.83
2019-02-12T00:21:57.003Z,1023.85
2019-02-12T00:22:56.979Z,1023.84
2019-02-12T00:23:56.991Z,1023.77
2019-02-12T00:24:56.957Z,1023.85
2019-02-12T00:25:56.963Z,1023.76
2019-02-12T00:26:56.939Z,1023.78
2019-02-12T00:27:56.926Z,1023.71
2019-02-12T00:28:56.918Z,1023.80
2019-02-12T00:29:56.926Z,1023.84
2019-02-12T00:30:56.892Z,1023.85
2019-02-12T00:31:56.897Z,1023.85
2019-02-12T00:32:56.873Z,1023.88
2019-02-12T00:33:56.858Z,1023.86
2019-02-12T00:34:56.851Z,1023.92
2019-02-12T00:35:56.945Z,1023.89
2019-02-12T00:36:56.827Z,1023.91
2019-02-12T00:37:56.830Z,1023.92
2019-02-12T00:38:56.804Z,1024.02
2019-02-12T00:39:56.796Z,1023.98
2019-02-12T00:40:56.783Z,1024.00
2019-02-12T00:41:56.800Z,1024.00
2019-02-12T00:42:56.780Z,1023.97
2019-02-12T00:43:56.752Z,1024.00
2019-02-12T00:44:56.740Z,1023.99
2019-02-12T00:45:56.727Z,1024.00
2019-02-12T00:46:56.714Z,1024.00
2019-02-12T00:47:56.731Z,1024.01
2019-02-12T00:48:56.715Z,1024.04
2019-02-12T00:49:56.697Z,1024.00
2019-02-12T00:50:56.676Z,1023.95
2019-02-12T00:51:56.666Z,1023.93
2019-02-12T00:52:56.652Z,1023.90
2019-02-12T00:53:56.644Z,1023.93
2019-02-12T00:54:56.688Z,1023.93
2019-02-12T00:55:56.627Z,1023.94
2019-02-12T00:56:56.611Z,1023.94
2019-02-12T00:57:56.598Z,1023.99
2019-02-12T00:58:56.589Z,1024.00
2019-02-12T00:59:56.575Z,1023.98
2019-02-12T01:00:56.623Z,1024.02
2019-02-12T01:01:56.555Z,1024.04
2019-02-12T01:02:56.544Z,1024.02
2019-02-12T01:03:56.535Z,1024.00
2019-02-12T01:04:56.522Z,1024.02
2019-02-12T01:05:56.518Z,1024.04
2019-02-12T01:06:56.519Z,1024.05
2019-02-12T01:07:56.526Z,1024.01
2019-02-12T01:08:56.478Z,1024.04
2019-02-12T01:09:56.471Z,1024.03
2019-02-12T01:10:56.461Z,1024.03
2019-02-12T01:11:56.448Z,1023.99
2019-02-12T01:12:56.444Z,1024.04
2019-02-12T01:13:56.465Z,1024.03
2019-02-12T01:14:56.412Z,1024.02
2019-02-12T01:15:56.402Z,1024.04
2019-02-12T01:16:56.393Z,1023.99
2019-02-12T01:17:56.396Z,1024.03
2019-02-12T01:18:56.369Z,1023.97
2019-02-12T01:19:56.397Z,1024.00
2019-02-12T01:20:56.365Z,1024.00
2019-02-12T01:21:56.337Z,1024.04
2019-02-12T01:22:56.323Z,1023.98
2019-02-12T01:23:56.327Z,1023.98
2019-02-12T01:24:56.308Z,1023.96
2019-02-12T01:25:56.320Z,1023.96
2019-02-12T01:26:56.282Z,1023.96
2019-02-12T01:27:56.271Z,1023.98
2019-02-12T01:28:56.270Z,1024.03
2019-02-12T01:29:56.250Z,1024.01
2019-02-12T01:30:56.248Z,1023.95
2019-02-12T01:31:56.269Z,1024.02
2019-02-12T01:32:56.216Z,1024.04
2019-02-12T01:33:56.207Z,1024.10
2019-02-12T01:34:56.244Z,1024.08
2019-02-12T01:35:56.193Z,1024.09
2019-02-12T01:36:56.174Z,1024.10
2019-02-12T01:37:56.201Z,1024.09
2019-02-12T01:38:56.155Z,1024.12
2019-02-12T01:39:56.141Z,1024.07
2019-02-12T01:40:56.143Z,1024.08
2019-02-12T01:41:56.122Z,1024.08
2019-02-12T01:42:56.108Z,1024.14
2019-02-12T01:43:56.150Z,1024.13
2019-02-12T01:44:56.100Z,1024.15
2019-02-12T01:45:56.075Z,1024.09
2019-02-12T01:46:56.065Z,1024.13
2019-02-12T01:47:56.054Z,1024.06
2019-02-12T01:48:56.042Z,1024.12
2019-02-12T01:49:56.044Z,1024.10
2019-02-12T01:50:56.056Z,1024.14
2019-02-12T01:51:56.009Z,1024.08
2019-02-12T01:52:55.999Z,1024.13
2019-02-12T01:53:55.989Z,1024.14
2019-02-12T01:54:55.979Z,1024.18
2019-02-12T01:55:55.986Z,1024.20
2019-02-12T01:56:55.994Z,1024.22
2019-02-12T01:57:55.949Z,1024.19
2019-02-12T01:58:55.934Z,1024.19
2019-02-12T01:59:55.924Z,1024.19
2019-02-12T02:00:55.910Z,1024.23
2019-02-12T02:01:55.914Z,1024.20
2019-02-12T02:02:55.942Z,1024.24
2019-02-12T02:03:55.879Z,1024.21
2019-02-12T02:04:55.867Z,1024.19
2019-02-12T02:05:55.856Z,1024.19
2019-02-12T02:06:55.865Z,1024.17
2019-02-12T02:07:55.839Z,1024.13
2019-02-12T02:08:55.859Z,1024.20
2019-02-12T02:09:55.810Z,1024.17
2019-02-12T02:10:55.804Z,1024.30
2019-02-12T02:11:55.793Z,1024.27
2019-02-12T02:12:55.792Z,1024.31
2019-02-12T02:13:55.769Z,1024.31
2019-02-12T02:14:55.803Z,1024.32
2019-02-12T02:15:55.747Z,1024.33
2019-02-12T02:16:55.738Z,1024.34
2019-02-12T02:17:55.743Z,1024.30
2019-02-12T02:18:55.715Z,1024.33
2019-02-12T02:19:55.708Z,1024.36
2019-02-12T02:20:55.740Z,1024.29
2019-02-12T02:21:55.680Z,1024.36
2019-02-12T02:22:55.672Z,1024.35
2019-02-12T02:23:55.676Z,1024.36
2019-02-12T02:24:55.657Z,1024.37
2019-02-12T02:25:55.641Z,1024.36
2019-02-12T02:26:55.720Z,1024.34
2019-02-12T02:27:55.617Z,1024.34
2019-02-12T02:28:55.607Z,1024.34
2019-02-12T02:29:55.609Z,1024.33
2019-02-12T02:30:55.778Z,1024.36
2019-02-12T02:31:55.578Z,1024.39
2019-02-12T02:32:55.598Z,1024.37
2019-02-12T02:33:55.552Z,1024.35
2019-02-12T02:34:55.539Z,1024.36
2019-02-12T02:35:55.545Z,1024.42
2019-02-12T02:36:55.520Z,1024.44
2019-02-12T02:37:55.507Z,1024.46
2019-02-12T02:38:55.539Z,1024.48
2019-02-12T02:39:55.483Z,1024.44
2019-02-12T02:40:55.489Z,1024.49
2019-02-12T02:41:55.465Z,1024.46
2019-02-12T02:42:55.454Z,1024.47
2019-02-12T02:43:55.444Z,1024.49
2019-02-12T02:44:55.473Z,1024.50
2019-02-12T02:45:55.422Z,1024.53
2019-02-12T02:46:55.433Z,1024.50
2019-02-12T02:47:55.399Z,1024.53
2019-02-12T02:48:55.390Z,1024.50
2019-02-12T02:49:55.387Z,1024.52
2019-02-12T02:50:55.410Z,1024.49
2019-02-12T02:51:55.358Z,1024.50
2019-02-12T02:52:55.365Z,1024.47
2019-02-12T02:53:55.342Z,1024.53
2019-02-12T02:54:55.323Z,1024.52
2019-02-12T02:55:55.311Z,1024.52
2019-02-12T02:56:55.333Z,1024.55
2019-02-12T02:57:55.293Z,1024.58
2019-02-12T02:58:55.296Z,1024.63
2019-02-12T02:59:55.270Z,1024.66
2019-02-12T03:00:55.261Z,1024.66
2019-02-12T03:01:55.246Z,1024.64
2019-02-12T03:02:55.272Z,1024.63
2019-02-12T03:03:55.228Z,1024.63
2019-02-12T03:04:55.238Z,1024.62
2019-02-12T03:05:55.208Z,1024.63
2019-02-12T03:06:55.203Z,1024.62
2019-02-12T03:07:55.180Z,1024.67
2019-02-12T03:08:55.205Z,1024.72
2019-02-12T03:09:55.166Z,1024.64
2019-02-12T03:10:55.162Z,1024.62
2019-02-12T03:11:55.139Z,1024.59
2019-02-12T03:12:55.127Z,1024.54
2019-02-12T03:13:55.139Z,1024.55
2019-02-12T03:14:55.144Z,1024.51
2019-02-12T03:15:55.097Z,1024.50
2019-02-12T03:16:55.085Z,1024.51
2019-02-12T03:17:55.082Z,1024.50
2019-02-12T03:18:55.065Z,1024.48
2019-02-12T03:19:55.064Z,1024.48
2019-02-12T03:20:55.069Z,1024.51
2019-02-12T03:22:03.377Z,1024.51
2019-02-12T03:22:56.018Z,1024.54
2019-02-12T03:23:55.008Z,1024.59
2019-02-12T03:24:54.995Z,1024.57
2019-02-12T03:25:54.999Z,1024.61
2019-02-12T03:26:55.003Z,1024.66
2019-02-12T03:27:54.963Z,1024.68
2019-02-12T03:28:54.953Z,1024.69
2019-02-12T03:29:54.942Z,1024.68
2019-02-12T03:30:54.951Z,1024.71
2019-02-12T03:31:54.921Z,1024.76
2019-02-12T03:32:54.941Z,1024.74
2019-02-12T03:33:54.910Z,1024.73
2019-02-12T03:34:54.889Z,1024.71
2019-02-12T03:35:54.883Z,1024.71
2019-02-12T03:36:54.874Z,1024.72
2019-02-12T03:37:54.851Z,1024.67
2019-02-12T03:38:54.891Z,1024.73
2019-02-12T03:39:54.845Z,1024.73
2019-02-12T03:40:54.822Z,1024.68
2019-02-12T03:41:54.812Z,1024.71
2019-02-12T03:42:54.809Z,1024.70
2019-02-12T03:43:54.789Z,1024.64
2019-02-12T03:44:54.801Z,1024.66
2019-02-12T03:45:54.803Z,1024.69
2019-02-12T03:46:54.758Z,1024.68
2019-02-12T03:47:54.778Z,1024.63
2019-02-12T03:48:54.747Z,1024.61
2019-02-12T03:49:54.722Z,1024.65
2019-02-12T03:50:54.727Z,1024.69
2019-02-12T03:51:54.728Z,1024.70
2019-02-12T03:52:54.692Z,1024.72
2019-02-12T03:53:54.680Z,1024.72
2019-02-12T03:54:54.688Z,1024.69
2019-02-12T03:55:54.657Z,1024.74
2019-02-12T03:56:54.666Z,1024.73
2019-02-12T03:57:54.638Z,1024.71
2019-02-12T03:58:54.653Z,1024.73
2019-02-12T03:59:54.614Z,1024.72
2019-02-12T04:00:54.615Z,1024.76
2019-02-12T04:01:54.591Z,1024.73
2019-02-12T04:02:54.594Z,1024.72
2019-02-12T04:03:54.569Z,1024.71
2019-02-12T04:04:54.594Z,1024.72
2019-02-12T04:05:54.552Z,1024.70
2019-02-12T04:06:54.583Z,1024.74
2019-02-12T04:07:54.529Z,1024.73
2019-02-12T04:08:54.515Z,1024.68
2019-02-12T04:09:54.504Z,1024.66
2019-02-12T04:10:54.533Z,1024.69
2019-02-12T04:11:54.483Z,1024.67
2019-02-12T04:12:54.485Z,1024.69
2019-02-12T04:13:54.474Z,1024.68
2019-02-12T04:14:54.448Z,1024.67
2019-02-12T04:15:54.440Z,1024.68
2019-02-12T04:16:54.460Z,1024.71
2019-02-12T04:17:54.428Z,1024.72
2019-02-12T04:18:54.405Z,1024.69
2019-02-12T04:19:54.415Z,1024.65
2019-02-12T04:20:54.399Z,1024.67
2019-02-12T04:21:54.372Z,1024.66
2019-02-12T04:22:54.396Z,1024.66
2019-02-12T04:23:54.352Z,1024.66
2019-02-12T04:24:54.340Z,1024.69
2019-02-12T04:25:54.330Z,1024.70
2019-02-12T04:26:54.335Z,1024.68
2019-02-12T04:27:55.465Z,1024.64
2019-02-12T04:28:54.340Z,1024.63
2019-02-12T04:29:54.286Z,1024.58
2019-02-12T04:30:54.282Z,1024.64
2019-02-12T04:31:54.264Z,1024.65
2019-02-12T04:32:54.264Z,1024.66
2019-02-12T04:33:54.243Z,1024.66
2019-02-12T04:34:54.260Z,1024.66
2019-02-12T04:35:54.223Z,1024.69
2019-02-12T04:36:54.209Z,1024.69
2019-02-12T04:37:54.211Z,1024.67
2019-02-12T04:38:54.190Z,1024.69
2019-02-12T04:39:54.196Z,1024.68
2019-02-12T04:40:54.189Z,1024.67
2019-02-12T04:41:54.159Z,1024.68
2019-02-12T04:42:54.144Z,1024.69
2019-02-12T04:43:54.144Z,1024.67
2019-02-12T04:44:54.363Z,1024.68
2019-02-12T04:45:54.126Z,1024.68
2019-02-12T04:46:54.137Z,1024.71
2019-02-12T04:47:54.089Z,1024.70
2019-02-12T04:48:54.079Z,1024.72
2019-02-12T04:49:54.083Z,1024.68
2019-02-12T04:50:54.148Z,1024.68
2019-02-12T04:51:54.063Z,1024.67
2019-02-12T04:52:54.097Z,1024.66
2019-02-12T04:53:54.025Z,1024.67
2019-02-12T04:54:54.013Z,1024.68
2019-02-12T04:55:54.000Z,1024.68
2019-02-12T04:56:53.993Z,1024.66
2019-02-12T04:57:54.008Z,1024.68
2019-02-12T04:58:54.023Z,1024.70
2019-02-12T04:59:53.959Z,1024.67
2019-02-12T05:00:53.945Z,1024.67
2019-02-12T05:01:53.935Z,1024.66
2019-02-12T05:02:53.927Z,1024.71
2019-02-12T05:03:53.934Z,1024.71
2019-02-12T05:04:53.932Z,1024.70
2019-02-12T05:05:53.894Z,1024.68
2019-02-12T05:06:53.881Z,1024.67
2019-02-12T05:07:53.872Z,1024.66
2019-02-12T05:08:53.886Z,1024.67
2019-02-12T05:09:53.851Z,1024.70
2019-02-12T05:10:53.881Z,1024.68
2019-02-12T05:11:53.828Z,1024.70
2019-02-12T05:12:53.815Z,1024.78
2019-02-12T05:13:53.804Z,1024.75
2019-02-12T05:14:53.814Z,1024.76
2019-02-12T05:15:53.791Z,1024.77
2019-02-12T05:16:53.768Z,1024.73
2019-02-12T05:17:53.780Z,1024.75
2019-02-12T05:18:53.754Z,1024.71
2019-02-12T05:19:53.741Z,1024.77
2019-02-12T05:20:53.744Z,1024.72
2019-02-12T05:21:53.717Z,1024.78
2019-02-12T05:22:53.707Z,1024.78
2019-02-12T05:23:53.731Z,1024.80
2019-02-12T05:24:53.685Z,1024.81
2019-02-12T05:25:53.680Z,1024.83
2019-02-12T05:26:53.681Z,1024.82
2019-02-12T05:27:53.655Z,1024.84
2019-02-12T05:28:53.646Z,1024.82
2019-02-12T05:29:53.669Z,1024.85
2019-02-12T05:30:53.620Z,1024.80
2019-02-12T05:31:53.634Z,1024.82
2019-02-12T05:32:53.601Z,1024.78
2019-02-12T05:33:53.590Z,1024.82
2019-02-12T05:34:55.770Z,1024.79
2019-02-12T05:35:53.593Z,1024.80
2019-02-12T05:36:53.554Z,1024.84
2019-02-12T05:37:53.564Z,1024.79
2019-02-12T05:38:53.533Z,1024.82
2019-02-12T05:39:53.520Z,1024.80
2019-02-12T05:40:53.516Z,1024.79
2019-02-12T05:41:53.521Z,1024.76
2019-02-12T05:42:53.490Z,1024.81
2019-02-12T05:43:53.494Z,1024.88
2019-02-12T05:44:53.470Z,1024.85
2019-02-12T05:45:53.455Z,1024.82
2019-02-12T05:46:53.444Z,1024.82
2019-02-12T05:47:53.462Z,1024.81
2019-02-12T05:48:53.437Z,1024.81
2019-02-12T05:49:53.419Z,1024.75
2019-02-12T05:50:53.405Z,1024.74
2019-02-12T05:51:53.389Z,1024.76
2019-02-12T05:52:54.984Z,1024.75
2019-02-12T05:53:53.396Z,1024.78
2019-02-12T05:54:53.374Z,1024.84
2019-02-12T05:55:53.347Z,1024.81
2019-02-12T05:56:53.349Z,1024.86
2019-02-12T05:57:53.322Z,1024.87
2019-02-12T05:58:53.314Z,1024.93
2019-02-12T05:59:53.337Z,1024.93
2019-02-12T06:00:53.294Z,1024.92
2019-02-12T06:01:53.280Z,1024.88
2019-02-12T06:02:53.283Z,1024.91
2019-02-12T06:03:53.256Z,1024.88
2019-02-12T06:04:53.252Z,1024.94
2019-02-12T06:05:53.273Z,1024.90
2019-02-12T06:06:53.240Z,1024.91
2019-02-12T06:07:53.226Z,1024.91
2019-02-12T06:08:53.205Z,1024.91
2019-02-12T06:09:53.191Z,1024.94
2019-02-12T06:10:53.179Z,1024.92
2019-02-12T06:11:53.202Z,1024.97
2019-02-12T06:12:53.158Z,1024.99
2019-02-12T06:13:53.166Z,1024.97
2019-02-12T06:14:53.135Z,1024.97
2019-02-12T06:15:53.127Z,1025.03
2019-02-12T06:16:53.119Z,1025.02
2019-02-12T06:17:53.133Z,1025.01
2019-02-12T06:18:53.094Z,1025.03
2019-02-12T06:19:53.093Z,1025.04
2019-02-12T06:20:53.072Z,1025.03
2019-02-12T06:21:53.061Z,1025.05
2019-02-12T06:22:53.050Z,1025.07
2019-02-12T06:23:53.046Z,1025.03
2019-02-12T06:24:53.151Z,1025.04
2019-02-12T06:25:53.024Z,1025.01
2019-02-12T06:26:53.006Z,1025.04
2019-02-12T06:27:53.003Z,1025.02
2019-02-12T06:28:52.986Z,1025.09
2019-02-12T06:29:52.973Z,1025.11
2019-02-12T06:30:53.020Z,1025.14
2019-02-12T06:31:52.951Z,1025.17
2019-02-12T06:32:52.958Z,1025.18
2019-02-12T06:33:52.930Z,1025.18
2019-02-12T06:34:52.952Z,1025.20
2019-02-12T06:35:52.911Z,1025.19
2019-02-12T06:36:52.939Z,1025.21
2019-02-12T06:37:52.887Z,1025.17
2019-02-12T06:38:52.876Z,1025.19
2019-02-12T06:39:52.865Z,1025.14
2019-02-12T06:40:52.854Z,1025.16
2019-02-12T06:41:52.855Z,1025.19
2019-02-12T06:42:52.902Z,1025.22
2019-02-12T06:43:52.836Z,1025.18
2019-02-12T06:44:52.809Z,1025.23
2019-02-12T06:45:52.803Z,1025.22
2019-02-12T06:46:52.810Z,1025.24
2019-02-12T06:47:52.793Z,1025.29
2019-02-12T06:48:52.771Z,1025.28
2019-02-12T06:49:52.792Z,1025.30
2019-02-12T06:50:52.745Z,1025.33
2019-02-12T06:51:52.738Z,1025.30
2019-02-12T06:52:52.733Z,1025.33
2019-02-12T06:53:52.712Z,1025.32
2019-02-12T06:54:52.716Z,1025.34
2019-02-12T06:55:52.723Z,1025.39
2019-02-12T06:56:52.684Z,1025.41
2019-02-12T06:57:52.669Z,1025.43
2019-02-12T06:58:52.680Z,1025.45
2019-02-12T06:59:52.649Z,1025.47
2019-02-12T07:00:52.636Z,1025.47
2019-02-12T07:01:52.642Z,1025.53
2019-02-12T07:02:52.614Z,1025.54
2019-02-12T07:03:52.603Z,1025.55
2019-02-12T07:04:52.614Z,1025.60
2019-02-12T07:05:52.580Z,1025.64
2019-02-12T07:06:52.568Z,1025.64
2019-02-12T07:07:52.632Z,1025.63
2019-02-12T07:08:52.557Z,1025.61
2019-02-12T07:09:52.558Z,1025.61
2019-02-12T07:10:52.526Z,1025.56
2019-02-12T07:11:52.512Z,1025.59
2019-02-12T07:12:52.541Z,1025.59
2019-02-12T07:13:52.493Z,1025.64
2019-02-12T07:14:52.484Z,1025.65
2019-02-12T07:15:52.505Z,1025.66
2019-02-12T07:16:52.459Z,1025.66
2019-02-12T07:17:52.452Z,1025.69
2019-02-12T07:18:54.469Z,1025.69
2019-02-12T07:19:52.432Z,1025.73
2019-02-12T07:20:52.449Z,1025.78
2019-02-12T07:21:52.405Z,1025.74
2019-02-12T07:22:52.395Z,1025.81
2019-02-12T07:23:52.386Z,1025.80
2019-02-12T07:24:52.377Z,1025.83
2019-02-12T07:25:52.416Z,1025.83
2019-02-12T07:26:52.372Z,1025.85
2019-02-12T07:27:52.341Z,1025.86
2019-02-12T07:28:52.331Z,1025.85
2019-02-12T07:29:52.319Z,1025.85
2019-02-12T07:30:52.315Z,1025.87
2019-02-12T07:31:52.325Z,1025.90
2019-02-12T07:32:52.299Z,1025.87
2019-02-12T07:33:52.286Z,1025.91
2019-02-12T07:34:52.266Z,1025.89
2019-02-12T07:35:52.263Z,1025.99
2019-02-12T07:36:52.247Z,1025.93
2019-02-12T07:37:52.283Z,1025.97
2019-02-12T07:38:52.222Z,1025.96
2019-02-12T07:39:52.209Z,1025.91
2019-02-12T07:40:52.198Z,1025.95
2019-02-12T07:41:52.191Z,1025.91
2019-02-12T07:42:52.197Z,1025.94
2019-02-12T07:43:52.208Z,1025.94
2019-02-12T07:44:52.157Z,1025.91
2019-02-12T07:45:52.144Z,1025.92
2019-02-12T07:46:52.138Z,1025.96
2019-02-12T07:47:52.126Z,1025.96
2019-02-12T07:48:52.134Z,1026.01
2019-02-12T07:49:52.139Z,1026.00
2019-02-12T07:50:52.089Z,1025.99
2019-02-12T07:51:52.083Z,1025.97
2019-02-12T07:52:52.071Z,1026.06
2019-02-12T07:53:52.064Z,1026.11
2019-02-12T07:54:52.145Z,1026.12
2019-02-12T07:55:52.088Z,1026.15
2019-02-12T07:56:52.032Z,1026.16
2019-02-12T07:57:52.019Z,1026.18
2019-02-12T07:58:52.004Z,1026.23
2019-02-12T07:59:52.006Z,1026.23
2019-02-12T08:00:51.986Z,1026.31
2019-02-12T08:01:51.994Z,1026.25
2019-02-12T08:02:51.971Z,1026.21
2019-02-12T08:03:51.949Z,1026.29
2019-02-12T08:04:51.938Z,1026.26
2019-02-12T08:05:51.925Z,1026.30
2019-02-12T08:06:51.917Z,1026.30
2019-02-12T08:07:51.917Z,1026.32
2019-02-12T08:08:51.924Z,1026.33
2019-02-12T08:09:51.886Z,1026.31
2019-02-12T08:10:51.874Z,1026.34
2019-02-12T08:11:51.974Z,1026.35
2019-02-12T08:12:51.863Z,1026.37
2019-02-12T08:13:51.840Z,1026.36
2019-02-12T08:14:51.856Z,1026.38
2019-02-12T08:15:51.820Z,1026.42
2019-02-12T08:16:51.826Z,1026.40
2019-02-12T08:17:51.811Z,1026.44
2019-02-12T08:18:51.798Z,1026.41
2019-02-12T08:19:51.773Z,1026.45
2019-02-12T08:20:51.769Z,1026.48
2019-02-12T08:21:51.797Z,1026.53
2019-02-12T08:22:51.742Z,1026.51
2019-02-12T08:23:51.739Z,1026.54
2019-02-12T08:24:51.745Z,1026.52
2019-02-12T08:25:51.710Z,1026.56
2019-02-12T08:26:51.697Z,1026.49
2019-02-12T08:27:51.723Z,1026.58
2019-02-12T08:28:52.136Z,1026.58
2019-02-12T08:29:51.666Z,1026.60
2019-02-12T08:30:51.658Z,1026.59
2019-02-12T08:31:51.644Z,1026.59
2019-02-12T08:32:51.637Z,1026.62
2019-02-12T08:33:51.642Z,1026.57
2019-02-12T08:34:51.635Z,1026.56
2019-02-12T08:35:57.270Z,1026.67
2019-02-12T08:36:52.592Z,1026.64
2019-02-12T08:37:51.579Z,1026.71
2019-02-12T08:38:51.572Z,1026.71
2019-02-12T08:39:51.605Z,1026.73
2019-02-12T08:40:51.546Z,1026.73
2019-02-12T08:41:51.533Z,1026.73
2019-02-12T08:42:51.523Z,1026.75
2019-02-12T08:43:51.514Z,1026.75
2019-02-12T08:44:51.540Z,1026.75
2019-02-12T08:45:51.510Z,1026.74
2019-02-12T08:46:53.146Z,1026.73
2019-02-12T08:47:51.474Z,1026.73
2019-02-12T08:48:51.474Z,1026.68
2019-02-12T08:49:51.449Z,1026.66
2019-02-12T08:50:51.465Z,1026.66
2019-02-12T08:51:51.437Z,1026.62
2019-02-12T08:52:51.414Z,1026.58
2019-02-12T08:53:51.403Z,1026.57
2019-02-12T08:54:51.399Z,1026.57
2019-02-12T08:55:51.383Z,1026.58
2019-02-12T08:56:51.410Z,1026.56
2019-02-12T08:57:51.365Z,1026.60
2019-02-12T08:58:51.349Z,1026.63
2019-02-12T08:59:51.337Z,1026.62
2019-02-12T09:00:51.331Z,1026.66
2019-02-12T09:01:51.334Z,1026.65
2019-02-12T09:02:51.360Z,1026.61
2019-02-12T09:03:51.301Z,1026.62
2019-02-12T09:04:51.282Z,1026.62
2019-02-12T09:05:51.276Z,1026.61
2019-02-12T09:06:51.268Z,1026.64
2019-02-12T09:07:51.269Z,1026.62
2019-02-12T09:08:51.282Z,1026.62
2019-02-12T09:09:51.228Z,1026.61
2019-02-12T09:10:51.220Z,1026.60
2019-02-12T09:11:51.207Z,1026.57
2019-02-12T09:12:51.213Z,1026.57
2019-02-12T09:13:51.186Z,1026.60
2019-02-12T09:14:51.225Z,1026.58
2019-02-12T09:15:51.170Z,1026.59
2019-02-12T09:16:51.153Z,1026.60
2019-02-12T09:17:51.149Z,1026.59
2019-02-12T09:18:51.146Z,1026.63
2019-02-12T09:19:51.121Z,1026.60
2019-02-12T09:20:51.140Z,1026.62
2019-02-12T09:21:51.116Z,1026.63
2019-02-12T09:22:51.095Z,1026.67
2019-02-12T09:23:59.481Z,1026.66
2019-02-12T09:24:52.065Z,1026.64
2019-02-12T09:25:51.055Z,1026.67
2019-02-12T09:26:51.068Z,1026.67
2019-02-12T09:27:51.042Z,1026.65
2019-02-12T09:28:51.021Z,1026.66
2019-02-12T09:29:51.027Z,1026.65
2019-02-12T09:30:51.003Z,1026.70
2019-02-12T09:31:50.988Z,1026.70
2019-02-12T09:32:51.022Z,1026.72
2019-02-12T09:33:50.967Z,1026.69
2019-02-12T09:34:50.954Z,1026.71
2019-02-12T09:35:50.955Z,1026.70
2019-02-12T09:36:50.932Z,1026.76
2019-02-12T09:37:50.922Z,1026.76
2019-02-12T09:38:50.950Z,1026.79
2019-02-12T09:39:50.900Z,1026.83
2019-02-12T09:40:50.905Z,1026.84
2019-02-12T09:41:50.879Z,1026.86
2019-02-12T09:42:50.893Z,1026.89
2019-02-12T09:43:50.858Z,1026.90
2019-02-12T09:44:50.847Z,1026.91
2019-02-12T09:45:50.861Z,1026.93
2019-02-12T09:46:50.839Z,1026.93
2019-02-12T09:47:50.812Z,1026.95
2019-02-12T09:48:50.806Z,1026.99
2019-02-12T09:49:50.795Z,1026.98
2019-02-12T09:50:50.783Z,1026.98
2019-02-12T09:51:50.810Z,1027.00
2019-02-12T09:52:50.763Z,1027.03
2019-02-12T09:53:50.750Z,1027.03
2019-02-12T09:54:50.740Z,1027.02
2019-02-12T09:55:50.724Z,1027.07
2019-02-12T09:56:50.714Z,1027.07
2019-02-12T09:57:50.758Z,1027.06
2019-02-12T09:58:50.704Z,1027.08
2019-02-12T09:59:50.684Z,1027.10
2019-02-12T10:00:50.672Z,1027.09
2019-02-12T10:01:50.659Z,1027.08
2019-02-12T10:02:50.660Z,1027.11
2019-02-12T10:03:50.639Z,1027.13
2019-02-12T10:04:50.666Z,1027.12
2019-02-12T10:05:50.617Z,1027.13
2019-02-12T10:06:50.606Z,1027.10
2019-02-12T10:07:50.679Z,1027.11
2019-02-12T10:08:50.594Z,1027.13
2019-02-12T10:09:50.616Z,1027.16
2019-02-12T10:10:50.616Z,1027.17
2019-02-12T10:11:50.554Z,1027.18
2019-02-12T10:12:50.553Z,1027.19
2019-02-12T10:13:50.529Z,1027.21
2019-02-12T10:14:50.541Z,1027.22
2019-02-12T10:15:50.506Z,1027.23
2019-02-12T10:16:50.543Z,1027.25
2019-02-12T10:17:50.486Z,1027.18
2019-02-12T10:18:50.472Z,1027.23
2019-02-12T10:19:50.463Z,1027.21
2019-02-12T10:20:50.477Z,1027.15
2019-02-12T10:21:50.440Z,1027.13
2019-02-12T10:22:50.451Z,1027.19
2019-02-12T10:23:50.421Z,1027.21
2019-02-12T10:24:50.410Z,1027.27
2019-02-12T10:25:50.410Z,1027.26
2019-02-12T10:26:50.401Z,1027.26
2019-02-12T10:27:50.376Z,1027.24
2019-02-12T10:28:50.423Z,1027.25
2019-02-12T10:29:50.365Z,1027.26
2019-02-12T10:30:50.349Z,1027.23
2019-02-12T10:31:50.345Z,1027.29
2019-02-12T10:32:50.321Z,1027.25
2019-02-12T10:33:50.312Z,1027.24
2019-02-12T10:34:50.345Z,1027.22
2019-02-12T10:35:50.290Z,1027.17
2019-02-12T10:36:50.292Z,1027.20
2019-02-12T10:37:50.266Z,1027.21
2019-02-12T10:38:50.257Z,1027.19
2019-02-12T10:39:50.268Z,1027.25
2019-02-12T10:40:50.253Z,1027.18
2019-02-12T10:41:50.266Z,1027.14
2019-02-12T10:42:50.221Z,1027.10
2019-02-12T10:43:50.204Z,1027.08
2019-02-12T10:44:50.188Z,1027.10
2019-02-12T10:45:50.183Z,1027.09
2019-02-12T10:46:50.167Z,1027.13
2019-02-12T10:47:50.194Z,1027.12
2019-02-12T10:48:50.144Z,1027.14
2019-02-12T10:49:50.149Z,1027.10
2019-02-12T10:50:50.170Z,1027.14
2019-02-12T10:51:51.039Z,1027.12
2019-02-12T10:52:50.100Z,1027.13
2019-02-12T10:53:50.104Z,1027.12
2019-02-12T10:54:50.106Z,1027.18
2019-02-12T10:55:50.067Z,1027.12
2019-02-12T10:56:50.068Z,1027.16
2019-02-12T10:57:50.044Z,1027.19
2019-02-12T10:58:50.048Z,1027.16
2019-02-12T10:59:50.031Z,1027.16
2019-02-12T11:00:50.043Z,1027.10
2019-02-12T11:01:50.013Z,1027.12
2019-02-12T11:02:50.021Z,1027.11
2019-02-12T11:03:49.977Z,1027.08
2019-02-12T11:04:49.981Z,1027.05
2019-02-12T11:05:49.958Z,1027.08
2019-02-12T11:06:49.975Z,1027.03
2019-02-12T11:07:49.932Z,1027.02
2019-02-12T11:08:49.928Z,1026.99
2019-02-12T11:09:49.927Z,1027.01
2019-02-12T11:10:49.900Z,1027.03
2019-02-12T11:11:49.925Z,1027.03
2019-02-12T11:12:49.911Z,1026.98
2019-02-12T11:13:49.866Z,1027.01
2019-02-12T11:14:49.873Z,1027.03
2019-02-12T11:15:49.846Z,1026.97
2019-02-12T11:16:49.858Z,1026.99
2019-02-12T11:17:49.824Z,1026.99
2019-02-12T11:18:49.835Z,1026.99
2019-02-12T11:19:49.802Z,1026.96
2019-02-12T11:20:49.802Z,1026.97
2019-02-12T11:21:49.778Z,1026.97
2019-02-12T11:22:49.787Z,1026.97
2019-02-12T11:23:49.757Z,1026.99
2019-02-12T11:24:49.797Z,1026.97
2019-02-12T11:25:49.749Z,1026.95
2019-02-12T11:26:49.734Z,1026.98
2019-02-12T11:27:49.714Z,1026.93
2019-02-12T11:28:49.717Z,1026.94
2019-02-12T11:29:49.691Z,1026.92
2019-02-12T11:30:49.724Z,1026.92
2019-02-12T11:31:49.685Z,1026.92
2019-02-12T11:32:49.658Z,1026.91
2019-02-12T11:33:49.645Z,1026.93
2019-02-12T11:34:49.638Z,1026.95
2019-02-12T11:35:49.623Z,1026.98
2019-02-12T11:36:49.632Z,1027.00
2019-02-12T11:37:49.621Z,1027.02
2019-02-12T11:38:49.613Z,1027.01
2019-02-12T11:39:49.588Z,1027.06
2019-02-12T11:40:49.568Z,1027.02
2019-02-12T11:41:49.559Z,1026.98
2019-02-12T11:42:49.584Z,1026.95
2019-02-12T11:43:49.536Z,1026.97
2019-02-12T11:44:49.542Z,1026.99
2019-02-12T11:45:49.514Z,1026.90
2019-02-12T11:46:49.513Z,1026.93
2019-02-12T11:47:49.529Z,1026.91
2019-02-12T11:48:49.514Z,1026.89
2019-02-12T11:49:49.480Z,1026.86
2019-02-12T11:50:49.462Z,1026.88
2019-02-12T11:51:49.457Z,1026.77
2019-02-12T11:52:49.434Z,1026.85
2019-02-12T11:53:49.426Z,1026.83
2019-02-12T11:54:49.446Z,1026.80
2019-02-12T11:55:49.425Z,1026.80
2019-02-12T11:56:49.392Z,1026.78
2019-02-12T11:57:49.389Z,1026.75
2019-02-12T11:58:49.375Z,1026.79
2019-02-12T11:59:49.359Z,1026.77
2019-02-12T12:00:49.384Z,1026.81
2019-02-12T12:01:49.349Z,1026.83
2019-02-12T12:02:49.334Z,1026.70
2019-02-12T12:03:49.315Z,1026.73
2019-02-12T12:04:49.304Z,1026.70
2019-02-12T12:05:49.293Z,1026.71